sensor_id;sensor_type;location;lat;lon;timestamp;P1;durP1;ratioP1;P2;durP2;ratioP2
6840;SDS011;3458;53.678;14.080;2023-03-01T00:00:10;4.63;;;3.17;;
6840;SDS011;3458;53.678;14.080;2023-03-01T00:02:36;8.30;;;3.60;;
6840;SDS011;3458;53.678;14.080;2023-03-01T00:05:02;8.80;;;4.27;;
6840;SDS011;3458;53.678;14.080;2023-03-01T00:07:28;7.30;;;3.90;;
6840;SDS011;3458;53.678;14.080;2023-03-01T00:09:53;6.90;;;3.40;;
6840;SDS011;3458;53.678;14.080;2023-03-01T00:12:19;4.83;;;2.57;;
6840;SDS011;3458;53.678;14.080;2023-03-01T00:14:45;3.73;;;2.17;;
6840;SDS011;3458;53.678;14.080;2023-03-01T00:17:10;4.53;;;2.57;;
6840;SDS011;3458;53.678;14.080;2023-03-01T00:19:36;4.80;;;2.40;;
6840;SDS011;3458;53.678;14.080;2023-03-01T00:22:02;3.70;;;2.90;;
6840;SDS011;3458;53.678;14.080;2023-03-01T00:24:27;4.07;;;2.60;;
6840;SDS011;3458;53.678;14.080;2023-03-01T00:26:53;8.20;;;2.57;;
6840;SDS011;3458;53.678;14.080;2023-03-01T00:29:21;3.83;;;2.53;;
6840;SDS011;3458;53.678;14.080;2023-03-01T00:31:47;4.10;;;2.23;;
6840;SDS011;3458;53.678;14.080;2023-03-01T00:34:13;2.93;;;2.73;;
6840;SDS011;3458;53.678;14.080;2023-03-01T00:36:38;7.03;;;3.57;;
6840;SDS011;3458;53.678;14.080;2023-03-01T00:39:05;6.03;;;2.30;;
6840;SDS011;3458;53.678;14.080;2023-03-01T00:41:34;3.90;;;2.67;;
6840;SDS011;3458;53.678;14.080;2023-03-01T00:44:00;4.60;;;3.20;;
6840;SDS011;3458;53.678;14.080;2023-03-01T00:46:26;5.30;;;2.80;;
6840;SDS011;3458;53.678;14.080;2023-03-01T00:48:52;6.93;;;2.53;;
6840;SDS011;3458;53.678;14.080;2023-03-01T00:53:50;5.33;;;2.60;;
6840;SDS011;3458;53.678;14.080;2023-03-01T00:56:16;7.73;;;3.00;;
6840;SDS011;3458;53.678;14.080;2023-03-01T00:58:42;3.63;;;3.07;;
6840;SDS011;3458;53.678;14.080;2023-03-01T01:01:18;6.10;;;3.83;;
6840;SDS011;3458;53.678;14.080;2023-03-01T01:03:46;4.40;;;2.90;;
6840;SDS011;3458;53.678;14.080;2023-03-01T01:06:18;6.17;;;3.80;;
6840;SDS011;3458;53.678;14.080;2023-03-01T01:08:46;4.67;;;3.10;;
6840;SDS011;3458;53.678;14.080;2023-03-01T01:11:12;6.40;;;3.23;;
6840;SDS011;3458;53.678;14.080;2023-03-01T01:13:39;5.33;;;3.20;;
6840;SDS011;3458;53.678;14.080;2023-03-01T01:16:05;4.40;;;2.80;;
6840;SDS011;3458;53.678;14.080;2023-03-01T01:18:31;4.27;;;2.90;;
6840;SDS011;3458;53.678;14.080;2023-03-01T01:20:57;7.50;;;3.50;;
6840;SDS011;3458;53.678;14.080;2023-03-01T01:23:23;6.50;;;3.50;;
6840;SDS011;3458;53.678;14.080;2023-03-01T01:25:48;6.77;;;3.57;;
6840;SDS011;3458;53.678;14.080;2023-03-01T01:28:14;6.77;;;3.77;;
6840;SDS011;3458;53.678;14.080;2023-03-01T01:30:39;6.33;;;2.93;;
6840;SDS011;3458;53.678;14.080;2023-03-01T01:33:05;7.20;;;3.03;;
6840;SDS011;3458;53.678;14.080;2023-03-01T01:35:30;3.83;;;2.90;;
6840;SDS011;3458;53.678;14.080;2023-03-01T01:37:55;3.73;;;2.80;;
6840;SDS011;3458;53.678;14.080;2023-03-01T01:40:21;6.53;;;3.27;;
6840;SDS011;3458;53.678;14.080;2023-03-01T01:42:46;4.30;;;2.70;;
6840;SDS011;3458;53.678;14.080;2023-03-01T01:47:55;11.07;;;4.87;;
6840;SDS011;3458;53.678;14.080;2023-03-01T01:50:25;14.50;;;5.10;;
6840;SDS011;3458;53.678;14.080;2023-03-01T01:52:51;9.63;;;6.23;;
6840;SDS011;3458;53.678;14.080;2023-03-01T01:55:23;12.60;;;5.13;;
6840;SDS011;3458;53.678;14.080;2023-03-01T01:57:52;17.93;;;5.83;;
6840;SDS011;3458;53.678;14.080;2023-03-01T02:00:23;8.17;;;5.07;;
6840;SDS011;3458;53.678;14.080;2023-03-01T02:02:55;8.43;;;3.80;;
6840;SDS011;3458;53.678;14.080;2023-03-01T02:05:27;7.20;;;3.53;;
6840;SDS011;3458;53.678;14.080;2023-03-01T02:07:59;6.37;;;3.97;;
6840;SDS011;3458;53.678;14.080;2023-03-01T02:10:25;6.93;;;3.30;;
6840;SDS011;3458;53.678;14.080;2023-03-01T02:12:53;6.00;;;3.00;;
6840;SDS011;3458;53.678;14.080;2023-03-01T02:15:21;6.03;;;2.60;;
6840;SDS011;3458;53.678;14.080;2023-03-01T02:17:47;3.87;;;2.13;;
6840;SDS011;3458;53.678;14.080;2023-03-01T02:22:52;4.57;;;2.10;;
6840;SDS011;3458;53.678;14.080;2023-03-01T02:28:04;2.10;;;2.00;;
6840;SDS011;3458;53.678;14.080;2023-03-01T02:30:43;8.13;;;2.80;;
6840;SDS011;3458;53.678;14.080;2023-03-01T02:33:31;3.67;;;2.50;;
6840;SDS011;3458;53.678;14.080;2023-03-01T02:36:00;6.93;;;2.70;;
6840;SDS011;3458;53.678;14.080;2023-03-01T02:38:32;4.63;;;3.60;;
6840;SDS011;3458;53.678;14.080;2023-03-01T02:40:58;6.13;;;2.97;;
6840;SDS011;3458;53.678;14.080;2023-03-01T02:43:25;6.03;;;2.60;;
6840;SDS011;3458;53.678;14.080;2023-03-01T02:45:57;3.37;;;2.17;;
6840;SDS011;3458;53.678;14.080;2023-03-01T02:48:24;3.20;;;2.60;;
6840;SDS011;3458;53.678;14.080;2023-03-01T02:50:52;3.37;;;2.80;;
6840;SDS011;3458;53.678;14.080;2023-03-01T02:53:27;9.10;;;3.10;;
6840;SDS011;3458;53.678;14.080;2023-03-01T02:56:04;6.00;;;3.60;;
6840;SDS011;3458;53.678;14.080;2023-03-01T02:58:29;4.20;;;3.10;;
6840;SDS011;3458;53.678;14.080;2023-03-01T03:00:55;5.00;;;3.40;;
6840;SDS011;3458;53.678;14.080;2023-03-01T03:03:21;4.17;;;3.30;;
6840;SDS011;3458;53.678;14.080;2023-03-01T03:05:47;3.77;;;2.77;;
6840;SDS011;3458;53.678;14.080;2023-03-01T03:08:13;7.20;;;3.67;;
6840;SDS011;3458;53.678;14.080;2023-03-01T03:10:41;5.80;;;3.90;;
6840;SDS011;3458;53.678;14.080;2023-03-01T03:13:12;7.50;;;3.23;;
6840;SDS011;3458;53.678;14.080;2023-03-01T03:15:39;5.47;;;3.20;;
6840;SDS011;3458;53.678;14.080;2023-03-01T03:18:07;4.60;;;3.10;;
6840;SDS011;3458;53.678;14.080;2023-03-01T03:20:35;3.27;;;2.33;;
6840;SDS011;3458;53.678;14.080;2023-03-01T03:23:04;7.33;;;3.10;;
6840;SDS011;3458;53.678;14.080;2023-03-01T03:25:29;3.20;;;2.90;;
6840;SDS011;3458;53.678;14.080;2023-03-01T03:27:56;3.73;;;3.23;;
6840;SDS011;3458;53.678;14.080;2023-03-01T03:30:23;6.70;;;3.33;;
6840;SDS011;3458;53.678;14.080;2023-03-01T03:32:53;4.20;;;2.93;;
6840;SDS011;3458;53.678;14.080;2023-03-01T03:35:26;5.83;;;3.40;;
6840;SDS011;3458;53.678;14.080;2023-03-01T03:37:54;5.90;;;3.17;;
6840;SDS011;3458;53.678;14.080;2023-03-01T03:40:27;6.20;;;3.23;;
6840;SDS011;3458;53.678;14.080;2023-03-01T03:43:04;8.07;;;3.60;;
6840;SDS011;3458;53.678;14.080;2023-03-01T03:45:32;4.07;;;3.37;;
6840;SDS011;3458;53.678;14.080;2023-03-01T03:47:58;3.90;;;2.53;;
6840;SDS011;3458;53.678;14.080;2023-03-01T03:50:24;5.93;;;3.50;;
6840;SDS011;3458;53.678;14.080;2023-03-01T03:52:49;9.60;;;3.47;;
6840;SDS011;3458;53.678;14.080;2023-03-01T03:55:15;8.60;;;3.60;;
6840;SDS011;3458;53.678;14.080;2023-03-01T03:57:44;7.63;;;3.93;;
6840;SDS011;3458;53.678;14.080;2023-03-01T04:00:19;5.50;;;3.20;;
6840;SDS011;3458;53.678;14.080;2023-03-01T04:02:46;9.10;;;3.27;;
6840;SDS011;3458;53.678;14.080;2023-03-01T04:05:17;6.43;;;2.60;;
6840;SDS011;3458;53.678;14.080;2023-03-01T04:07:44;7.40;;;3.63;;
6840;SDS011;3458;53.678;14.080;2023-03-01T04:10:11;4.93;;;3.50;;
6840;SDS011;3458;53.678;14.080;2023-03-01T04:12:39;4.00;;;2.50;;
6840;SDS011;3458;53.678;14.080;2023-03-01T04:15:05;5.23;;;3.30;;
6840;SDS011;3458;53.678;14.080;2023-03-01T04:17:45;5.77;;;3.50;;
6840;SDS011;3458;53.678;14.080;2023-03-01T04:20:15;4.80;;;3.50;;
6840;SDS011;3458;53.678;14.080;2023-03-01T04:22:43;6.70;;;3.33;;
6840;SDS011;3458;53.678;14.080;2023-03-01T04:25:11;5.13;;;3.20;;
6840;SDS011;3458;53.678;14.080;2023-03-01T04:27:39;6.20;;;3.60;;
6840;SDS011;3458;53.678;14.080;2023-03-01T04:30:05;6.80;;;3.20;;
6840;SDS011;3458;53.678;14.080;2023-03-01T04:32:32;4.87;;;3.27;;
6840;SDS011;3458;53.678;14.080;2023-03-01T04:34:57;3.47;;;2.57;;
6840;SDS011;3458;53.678;14.080;2023-03-01T04:37:23;7.80;;;3.40;;
6840;SDS011;3458;53.678;14.080;2023-03-01T04:39:49;4.93;;;2.57;;
6840;SDS011;3458;53.678;14.080;2023-03-01T04:42:14;4.17;;;2.60;;
6840;SDS011;3458;53.678;14.080;2023-03-01T04:44:41;5.00;;;2.63;;
6840;SDS011;3458;53.678;14.080;2023-03-01T04:47:07;3.20;;;2.73;;
6840;SDS011;3458;53.678;14.080;2023-03-01T04:49:33;5.20;;;2.67;;
6840;SDS011;3458;53.678;14.080;2023-03-01T04:51:58;4.90;;;2.90;;
6840;SDS011;3458;53.678;14.080;2023-03-01T04:54:26;5.53;;;2.63;;
6840;SDS011;3458;53.678;14.080;2023-03-01T04:56:53;3.70;;;3.17;;
6840;SDS011;3458;53.678;14.080;2023-03-01T04:59:19;4.40;;;3.43;;
6840;SDS011;3458;53.678;14.080;2023-03-01T05:01:47;3.70;;;2.27;;
6840;SDS011;3458;53.678;14.080;2023-03-01T05:04:16;5.13;;;3.23;;
6840;SDS011;3458;53.678;14.080;2023-03-01T05:06:42;8.90;;;3.40;;
6840;SDS011;3458;53.678;14.080;2023-03-01T05:09:07;9.23;;;3.90;;
6840;SDS011;3458;53.678;14.080;2023-03-01T05:11:33;5.07;;;3.23;;
6840;SDS011;3458;53.678;14.080;2023-03-01T05:14:01;7.30;;;3.40;;
6840;SDS011;3458;53.678;14.080;2023-03-01T05:16:27;5.87;;;3.33;;
6840;SDS011;3458;53.678;14.080;2023-03-01T05:18:53;3.20;;;2.43;;
6840;SDS011;3458;53.678;14.080;2023-03-01T05:21:20;4.70;;;2.60;;
6840;SDS011;3458;53.678;14.080;2023-03-01T05:23:46;4.00;;;3.00;;
6840;SDS011;3458;53.678;14.080;2023-03-01T05:26:11;5.63;;;3.10;;
6840;SDS011;3458;53.678;14.080;2023-03-01T05:28:38;9.50;;;3.07;;
6840;SDS011;3458;53.678;14.080;2023-03-01T05:31:04;5.40;;;3.60;;
6840;SDS011;3458;53.678;14.080;2023-03-01T05:33:34;7.53;;;4.40;;
6840;SDS011;3458;53.678;14.080;2023-03-01T05:36:05;6.23;;;4.03;;
6840;SDS011;3458;53.678;14.080;2023-03-01T05:38:32;5.60;;;3.97;;
6840;SDS011;3458;53.678;14.080;2023-03-01T05:40:57;5.10;;;3.13;;
6840;SDS011;3458;53.678;14.080;2023-03-01T05:43:23;8.50;;;3.33;;
6840;SDS011;3458;53.678;14.080;2023-03-01T05:45:48;5.87;;;3.20;;
6840;SDS011;3458;53.678;14.080;2023-03-01T05:48:14;15.33;;;6.20;;
6840;SDS011;3458;53.678;14.080;2023-03-01T05:50:40;33.10;;;11.87;;
6840;SDS011;3458;53.678;14.080;2023-03-01T05:55:37;38.00;;;12.83;;
6840;SDS011;3458;53.678;14.080;2023-03-01T05:58:05;19.00;;;7.30;;
6840;SDS011;3458;53.678;14.080;2023-03-01T06:00:32;13.23;;;5.20;;
6840;SDS011;3458;53.678;14.080;2023-03-01T06:02:59;9.73;;;3.70;;
6840;SDS011;3458;53.678;14.080;2023-03-01T06:05:25;5.87;;;2.60;;
6840;SDS011;3458;53.678;14.080;2023-03-01T06:07:51;7.70;;;4.10;;
6840;SDS011;3458;53.678;14.080;2023-03-01T06:10:18;8.63;;;4.67;;
6840;SDS011;3458;53.678;14.080;2023-03-01T06:12:44;11.20;;;5.37;;
6840;SDS011;3458;53.678;14.080;2023-03-01T06:15:14;9.90;;;3.90;;
6840;SDS011;3458;53.678;14.080;2023-03-01T06:17:41;9.93;;;4.70;;
6840;SDS011;3458;53.678;14.080;2023-03-01T06:20:12;5.83;;;3.83;;
6840;SDS011;3458;53.678;14.080;2023-03-01T06:22:45;9.27;;;3.60;;
6840;SDS011;3458;53.678;14.080;2023-03-01T06:25:13;8.13;;;2.93;;
6840;SDS011;3458;53.678;14.080;2023-03-01T06:27:40;6.20;;;3.90;;
6840;SDS011;3458;53.678;14.080;2023-03-01T06:30:11;9.53;;;3.67;;
6840;SDS011;3458;53.678;14.080;2023-03-01T06:32:39;5.73;;;3.50;;
6840;SDS011;3458;53.678;14.080;2023-03-01T06:35:07;4.97;;;3.13;;
6840;SDS011;3458;53.678;14.080;2023-03-01T06:37:37;10.73;;;2.83;;
6840;SDS011;3458;53.678;14.080;2023-03-01T06:40:04;5.77;;;3.70;;
6840;SDS011;3458;53.678;14.080;2023-03-01T06:42:34;17.37;;;7.20;;
6840;SDS011;3458;53.678;14.080;2023-03-01T06:45:00;11.70;;;5.87;;
6840;SDS011;3458;53.678;14.080;2023-03-01T06:47:26;18.07;;;8.00;;
6840;SDS011;3458;53.678;14.080;2023-03-01T06:49:52;22.27;;;8.63;;
6840;SDS011;3458;53.678;14.080;2023-03-01T06:52:17;14.00;;;7.17;;
6840;SDS011;3458;53.678;14.080;2023-03-01T06:54:43;20.47;;;9.53;;
6840;SDS011;3458;53.678;14.080;2023-03-01T06:57:08;34.27;;;16.60;;
6840;SDS011;3458;53.678;14.080;2023-03-01T06:59:34;35.67;;;14.17;;
6840;SDS011;3458;53.678;14.080;2023-03-01T07:01:59;26.60;;;10.00;;
6840;SDS011;3458;53.678;14.080;2023-03-01T07:04:25;25.67;;;9.43;;
6840;SDS011;3458;53.678;14.080;2023-03-01T07:06:53;24.87;;;10.23;;
6840;SDS011;3458;53.678;14.080;2023-03-01T07:09:20;13.00;;;6.70;;
6840;SDS011;3458;53.678;14.080;2023-03-01T07:11:47;11.80;;;5.50;;
6840;SDS011;3458;53.678;14.080;2023-03-01T07:14:12;11.13;;;6.17;;
6840;SDS011;3458;53.678;14.080;2023-03-01T07:16:38;8.90;;;4.83;;
6840;SDS011;3458;53.678;14.080;2023-03-01T07:19:03;6.93;;;4.67;;
6840;SDS011;3458;53.678;14.080;2023-03-01T07:21:30;10.03;;;5.30;;
6840;SDS011;3458;53.678;14.080;2023-03-01T07:23:56;8.37;;;4.40;;
6840;SDS011;3458;53.678;14.080;2023-03-01T07:26:21;6.07;;;3.80;;
6840;SDS011;3458;53.678;14.080;2023-03-01T07:28:47;7.13;;;4.23;;
6840;SDS011;3458;53.678;14.080;2023-03-01T07:31:12;10.07;;;5.60;;
6840;SDS011;3458;53.678;14.080;2023-03-01T07:33:38;17.00;;;5.70;;
6840;SDS011;3458;53.678;14.080;2023-03-01T07:36:04;13.73;;;7.17;;
6840;SDS011;3458;53.678;14.080;2023-03-01T07:38:31;19.23;;;7.67;;
6840;SDS011;3458;53.678;14.080;2023-03-01T07:41:00;14.77;;;7.70;;
6840;SDS011;3458;53.678;14.080;2023-03-01T07:43:27;8.30;;;4.77;;
6840;SDS011;3458;53.678;14.080;2023-03-01T07:45:53;8.70;;;4.50;;
6840;SDS011;3458;53.678;14.080;2023-03-01T07:48:19;8.93;;;4.10;;
6840;SDS011;3458;53.678;14.080;2023-03-01T07:50:44;5.40;;;3.70;;
6840;SDS011;3458;53.678;14.080;2023-03-01T07:53:10;7.73;;;4.93;;
6840;SDS011;3458;53.678;14.080;2023-03-01T07:55:36;15.83;;;4.43;;
6840;SDS011;3458;53.678;14.080;2023-03-01T07:58:02;9.50;;;4.47;;
6840;SDS011;3458;53.678;14.080;2023-03-01T08:00:27;16.50;;;5.80;;
6840;SDS011;3458;53.678;14.080;2023-03-01T08:02:53;11.73;;;5.53;;
6840;SDS011;3458;53.678;14.080;2023-03-01T08:05:18;10.30;;;3.97;;
6840;SDS011;3458;53.678;14.080;2023-03-01T08:07:44;7.17;;;4.13;;
6840;SDS011;3458;53.678;14.080;2023-03-01T08:10:09;8.43;;;3.90;;
6840;SDS011;3458;53.678;14.080;2023-03-01T08:12:35;6.53;;;3.87;;
6840;SDS011;3458;53.678;14.080;2023-03-01T08:15:01;5.53;;;3.10;;
6840;SDS011;3458;53.678;14.080;2023-03-01T08:17:26;17.07;;;8.13;;
6840;SDS011;3458;53.678;14.080;2023-03-01T08:19:52;48.83;;;22.10;;
6840;SDS011;3458;53.678;14.080;2023-03-01T08:22:17;38.67;;;12.60;;
6840;SDS011;3458;53.678;14.080;2023-03-01T08:24:43;19.33;;;9.03;;
6840;SDS011;3458;53.678;14.080;2023-03-01T08:27:08;33.17;;;12.20;;
6840;SDS011;3458;53.678;14.080;2023-03-01T08:29:34;39.17;;;13.07;;
6840;SDS011;3458;53.678;14.080;2023-03-01T08:32:00;26.10;;;7.87;;
6840;SDS011;3458;53.678;14.080;2023-03-01T08:34:25;9.57;;;5.00;;
6840;SDS011;3458;53.678;14.080;2023-03-01T08:36:51;14.37;;;4.47;;
6840;SDS011;3458;53.678;14.080;2023-03-01T08:39:17;17.77;;;4.00;;
6840;SDS011;3458;53.678;14.080;2023-03-01T08:41:44;5.70;;;3.87;;
6840;SDS011;3458;53.678;14.080;2023-03-01T08:44:11;7.87;;;4.30;;
6840;SDS011;3458;53.678;14.080;2023-03-01T08:46:38;7.03;;;4.40;;
6840;SDS011;3458;53.678;14.080;2023-03-01T08:49:06;9.90;;;4.13;;
6840;SDS011;3458;53.678;14.080;2023-03-01T08:51:32;5.97;;;4.13;;
6840;SDS011;3458;53.678;14.080;2023-03-01T08:54:02;6.23;;;3.90;;
6840;SDS011;3458;53.678;14.080;2023-03-01T08:56:28;5.97;;;3.90;;
6840;SDS011;3458;53.678;14.080;2023-03-01T08:58:54;10.13;;;5.13;;
6840;SDS011;3458;53.678;14.080;2023-03-01T09:01:19;15.83;;;7.50;;
6840;SDS011;3458;53.678;14.080;2023-03-01T09:03:45;10.27;;;5.33;;
6840;SDS011;3458;53.678;14.080;2023-03-01T09:06:11;8.20;;;4.27;;
6840;SDS011;3458;53.678;14.080;2023-03-01T09:08:37;8.40;;;4.80;;
6840;SDS011;3458;53.678;14.080;2023-03-01T09:11:04;9.30;;;4.37;;
6840;SDS011;3458;53.678;14.080;2023-03-01T09:13:32;7.07;;;4.60;;
6840;SDS011;3458;53.678;14.080;2023-03-01T09:15:58;6.77;;;4.30;;
6840;SDS011;3458;53.678;14.080;2023-03-01T09:18:25;7.80;;;4.63;;
6840;SDS011;3458;53.678;14.080;2023-03-01T09:20:50;10.40;;;4.40;;
6840;SDS011;3458;53.678;14.080;2023-03-01T09:23:16;8.00;;;4.80;;
6840;SDS011;3458;53.678;14.080;2023-03-01T09:25:41;14.80;;;5.30;;
6840;SDS011;3458;53.678;14.080;2023-03-01T09:28:07;9.03;;;4.37;;
6840;SDS011;3458;53.678;14.080;2023-03-01T09:30:32;11.73;;;6.47;;
6840;SDS011;3458;53.678;14.080;2023-03-01T09:32:58;14.20;;;6.83;;
6840;SDS011;3458;53.678;14.080;2023-03-01T09:35:23;18.57;;;7.40;;
6840;SDS011;3458;53.678;14.080;2023-03-01T09:37:49;19.07;;;8.53;;
6840;SDS011;3458;53.678;14.080;2023-03-01T09:40:19;17.70;;;9.70;;
6840;SDS011;3458;53.678;14.080;2023-03-01T09:43:05;17.60;;;7.37;;
6840;SDS011;3458;53.678;14.080;2023-03-01T09:45:39;16.20;;;8.90;;
6840;SDS011;3458;53.678;14.080;2023-03-01T09:48:19;15.97;;;9.37;;
6840;SDS011;3458;53.678;14.080;2023-03-01T09:50:50;18.00;;;9.07;;
6840;SDS011;3458;53.678;14.080;2023-03-01T09:53:21;20.60;;;9.17;;
6840;SDS011;3458;53.678;14.080;2023-03-01T09:58:35;22.87;;;9.73;;
6840;SDS011;3458;53.678;14.080;2023-03-01T10:04:17;24.57;;;12.53;;
6840;SDS011;3458;53.678;14.080;2023-03-01T10:09:36;19.10;;;9.73;;
6840;SDS011;3458;53.678;14.080;2023-03-01T10:12:04;20.23;;;10.20;;
6840;SDS011;3458;53.678;14.080;2023-03-01T10:17:34;20.33;;;11.10;;
6840;SDS011;3458;53.678;14.080;2023-03-01T10:22:46;24.70;;;12.07;;
6840;SDS011;3458;53.678;14.080;2023-03-01T10:25:15;21.30;;;11.67;;
6840;SDS011;3458;53.678;14.080;2023-03-01T10:28:10;25.77;;;11.53;;
6840;SDS011;3458;53.678;14.080;2023-03-01T10:30:50;24.10;;;12.40;;
6840;SDS011;3458;53.678;14.080;2023-03-01T10:33:23;36.43;;;18.43;;
6840;SDS011;3458;53.678;14.080;2023-03-01T10:35:52;22.40;;;12.63;;
6840;SDS011;3458;53.678;14.080;2023-03-01T10:38:18;23.80;;;12.57;;
6840;SDS011;3458;53.678;14.080;2023-03-01T10:40:55;25.93;;;13.03;;
6840;SDS011;3458;53.678;14.080;2023-03-01T10:43:53;20.30;;;12.17;;
6840;SDS011;3458;53.678;14.080;2023-03-01T10:46:22;25.63;;;12.17;;
6840;SDS011;3458;53.678;14.080;2023-03-01T10:49:05;20.10;;;11.80;;
6840;SDS011;3458;53.678;14.080;2023-03-01T10:51:44;23.17;;;12.10;;
6840;SDS011;3458;53.678;14.080;2023-03-01T10:54:25;23.20;;;12.07;;
6840;SDS011;3458;53.678;14.080;2023-03-01T10:56:54;26.30;;;11.50;;
6840;SDS011;3458;53.678;14.080;2023-03-01T10:59:25;26.47;;;11.57;;
6840;SDS011;3458;53.678;14.080;2023-03-01T11:04:52;22.17;;;12.17;;
6840;SDS011;3458;53.678;14.080;2023-03-01T11:07:22;23.03;;;11.67;;
6840;SDS011;3458;53.678;14.080;2023-03-01T11:09:47;25.03;;;11.80;;
6840;SDS011;3458;53.678;14.080;2023-03-01T11:12:13;25.47;;;11.80;;
6840;SDS011;3458;53.678;14.080;2023-03-01T11:14:46;19.43;;;9.90;;
6840;SDS011;3458;53.678;14.080;2023-03-01T11:17:29;21.40;;;11.47;;
6840;SDS011;3458;53.678;14.080;2023-03-01T11:22:29;24.40;;;10.60;;
6840;SDS011;3458;53.678;14.080;2023-03-01T11:24:57;21.87;;;10.90;;
6840;SDS011;3458;53.678;14.080;2023-03-01T11:27:25;15.60;;;10.07;;
6840;SDS011;3458;53.678;14.080;2023-03-01T11:30:00;24.10;;;11.57;;
6840;SDS011;3458;53.678;14.080;2023-03-01T11:32:33;21.13;;;10.80;;
6840;SDS011;3458;53.678;14.080;2023-03-01T11:35:14;18.13;;;10.37;;
6840;SDS011;3458;53.678;14.080;2023-03-01T11:40:28;16.73;;;10.03;;
6840;SDS011;3458;53.678;14.080;2023-03-01T11:45:45;19.67;;;9.80;;
6840;SDS011;3458;53.678;14.080;2023-03-01T11:51:11;17.70;;;10.03;;
6840;SDS011;3458;53.678;14.080;2023-03-01T11:56:43;21.67;;;10.30;;
6840;SDS011;3458;53.678;14.080;2023-03-01T11:59:30;18.90;;;10.40;;
6840;SDS011;3458;53.678;14.080;2023-03-01T12:02:23;19.30;;;10.50;;
6840;SDS011;3458;53.678;14.080;2023-03-01T12:05:05;17.20;;;9.87;;
6840;SDS011;3458;53.678;14.080;2023-03-01T12:10:33;16.40;;;10.93;;
6840;SDS011;3458;53.678;14.080;2023-03-01T12:16:40;19.40;;;10.40;;
6840;SDS011;3458;53.678;14.080;2023-03-01T12:20:07;19.10;;;11.37;;
6840;SDS011;3458;53.678;14.080;2023-03-01T12:22:16;21.93;;;12.77;;
6840;SDS011;3458;53.678;14.080;2023-03-01T12:25:08;17.17;;;10.30;;
6840;SDS011;3458;53.678;14.080;2023-03-01T12:28:10;18.47;;;10.63;;
6840;SDS011;3458;53.678;14.080;2023-03-01T12:31:00;22.77;;;11.50;;
6840;SDS011;3458;53.678;14.080;2023-03-01T12:34:01;16.20;;;10.10;;
6840;SDS011;3458;53.678;14.080;2023-03-01T12:36:49;19.00;;;11.67;;
6840;SDS011;3458;53.678;14.080;2023-03-01T12:39:44;19.07;;;10.50;;
6840;SDS011;3458;53.678;14.080;2023-03-01T12:48:37;17.97;;;10.00;;
6840;SDS011;3458;53.678;14.080;2023-03-01T12:51:14;17.13;;;10.23;;
6840;SDS011;3458;53.678;14.080;2023-03-01T12:53:42;17.10;;;9.43;;
6840;SDS011;3458;53.678;14.080;2023-03-01T12:56:14;13.77;;;8.30;;
6840;SDS011;3458;53.678;14.080;2023-03-01T13:04:32;13.90;;;8.50;;
6840;SDS011;3458;53.678;14.080;2023-03-01T13:15:24;12.13;;;5.13;;
6840;SDS011;3458;53.678;14.080;2023-03-01T13:18:02;10.23;;;4.90;;
6840;SDS011;3458;53.678;14.080;2023-03-01T13:26:02;12.97;;;6.00;;
6840;SDS011;3458;53.678;14.080;2023-03-01T13:30:56;9.23;;;5.13;;
6840;SDS011;3458;53.678;14.080;2023-03-01T13:35:51;12.53;;;6.20;;
6840;SDS011;3458;53.678;14.080;2023-03-01T13:41:06;10.93;;;7.27;;
6840;SDS011;3458;53.678;14.080;2023-03-01T13:43:34;13.77;;;6.93;;
6840;SDS011;3458;53.678;14.080;2023-03-01T13:46:08;7.40;;;5.53;;
6840;SDS011;3458;53.678;14.080;2023-03-01T13:48:47;9.33;;;6.30;;
6840;SDS011;3458;53.678;14.080;2023-03-01T13:51:20;8.53;;;6.10;;
6840;SDS011;3458;53.678;14.080;2023-03-01T13:53:52;13.27;;;8.47;;
6840;SDS011;3458;53.678;14.080;2023-03-01T13:56:21;9.80;;;7.10;;
6840;SDS011;3458;53.678;14.080;2023-03-01T13:58:48;10.20;;;7.10;;
6840;SDS011;3458;53.678;14.080;2023-03-01T14:01:29;14.30;;;6.00;;
6840;SDS011;3458;53.678;14.080;2023-03-01T14:03:57;11.27;;;6.07;;
6840;SDS011;3458;53.678;14.080;2023-03-01T14:06:24;11.80;;;6.40;;
6840;SDS011;3458;53.678;14.080;2023-03-01T14:08:59;8.17;;;5.53;;
6840;SDS011;3458;53.678;14.080;2023-03-01T14:11:49;8.17;;;5.97;;
6840;SDS011;3458;53.678;14.080;2023-03-01T14:17:10;10.90;;;6.30;;
6840;SDS011;3458;53.678;14.080;2023-03-01T14:19:55;14.60;;;7.07;;
6840;SDS011;3458;53.678;14.080;2023-03-01T14:22:24;11.33;;;6.67;;
6840;SDS011;3458;53.678;14.080;2023-03-01T14:24:55;8.80;;;6.50;;
6840;SDS011;3458;53.678;14.080;2023-03-01T14:27:26;12.77;;;7.70;;
6840;SDS011;3458;53.678;14.080;2023-03-01T14:29:56;9.97;;;6.53;;
6840;SDS011;3458;53.678;14.080;2023-03-01T14:32:24;11.00;;;7.60;;
6840;SDS011;3458;53.678;14.080;2023-03-01T14:34:52;10.57;;;7.80;;
6840;SDS011;3458;53.678;14.080;2023-03-01T14:39:44;14.20;;;9.40;;
6840;SDS011;3458;53.678;14.080;2023-03-01T14:42:11;11.97;;;8.50;;
6840;SDS011;3458;53.678;14.080;2023-03-01T14:44:38;11.50;;;8.10;;
6840;SDS011;3458;53.678;14.080;2023-03-01T14:47:10;11.97;;;8.10;;
6840;SDS011;3458;53.678;14.080;2023-03-01T14:49:39;11.87;;;7.93;;
6840;SDS011;3458;53.678;14.080;2023-03-01T14:52:07;10.50;;;7.43;;
6840;SDS011;3458;53.678;14.080;2023-03-01T14:54:46;10.47;;;7.50;;
6840;SDS011;3458;53.678;14.080;2023-03-01T14:57:19;15.80;;;8.93;;
6840;SDS011;3458;53.678;14.080;2023-03-01T14:59:47;14.00;;;6.80;;
6840;SDS011;3458;53.678;14.080;2023-03-01T15:02:16;15.30;;;10.00;;
6840;SDS011;3458;53.678;14.080;2023-03-01T15:04:48;11.40;;;7.83;;
6840;SDS011;3458;53.678;14.080;2023-03-01T15:07:16;19.93;;;10.73;;
6840;SDS011;3458;53.678;14.080;2023-03-01T15:09:43;15.00;;;9.27;;
6840;SDS011;3458;53.678;14.080;2023-03-01T15:12:31;14.23;;;9.00;;
6840;SDS011;3458;53.678;14.080;2023-03-01T15:15:00;15.00;;;9.50;;
6840;SDS011;3458;53.678;14.080;2023-03-01T15:17:28;14.27;;;10.00;;
6840;SDS011;3458;53.678;14.080;2023-03-01T15:19:56;12.60;;;9.00;;
6840;SDS011;3458;53.678;14.080;2023-03-01T15:22:23;11.60;;;8.40;;
6840;SDS011;3458;53.678;14.080;2023-03-01T15:24:50;14.33;;;8.70;;
6840;SDS011;3458;53.678;14.080;2023-03-01T15:27:17;13.17;;;8.60;;
6840;SDS011;3458;53.678;14.080;2023-03-01T15:29:48;22.17;;;10.97;;
6840;SDS011;3458;53.678;14.080;2023-03-01T15:34:59;18.60;;;10.20;;
6840;SDS011;3458;53.678;14.080;2023-03-01T15:37:47;15.97;;;9.37;;
6840;SDS011;3458;53.678;14.080;2023-03-01T15:40:28;15.93;;;8.73;;
6840;SDS011;3458;53.678;14.080;2023-03-01T15:43:01;14.13;;;9.30;;
6840;SDS011;3458;53.678;14.080;2023-03-01T15:45:29;15.77;;;9.10;;
6840;SDS011;3458;53.678;14.080;2023-03-01T15:48:00;20.40;;;10.37;;
6840;SDS011;3458;53.678;14.080;2023-03-01T15:50:35;19.00;;;10.03;;
6840;SDS011;3458;53.678;14.080;2023-03-01T15:53:05;15.90;;;9.70;;
6840;SDS011;3458;53.678;14.080;2023-03-01T15:55:35;17.10;;;9.50;;
6840;SDS011;3458;53.678;14.080;2023-03-01T16:00:41;20.57;;;10.07;;
6840;SDS011;3458;53.678;14.080;2023-03-01T16:03:08;15.53;;;9.47;;
6840;SDS011;3458;53.678;14.080;2023-03-01T16:05:37;17.70;;;9.60;;
6840;SDS011;3458;53.678;14.080;2023-03-01T16:08:04;15.00;;;9.13;;
6840;SDS011;3458;53.678;14.080;2023-03-01T16:10:31;16.07;;;9.23;;
6840;SDS011;3458;53.678;14.080;2023-03-01T16:12:57;19.03;;;10.10;;
6840;SDS011;3458;53.678;14.080;2023-03-01T16:15:24;19.37;;;9.87;;
6840;SDS011;3458;53.678;14.080;2023-03-01T16:17:54;17.27;;;9.17;;
6840;SDS011;3458;53.678;14.080;2023-03-01T16:20:20;25.33;;;11.10;;
6840;SDS011;3458;53.678;14.080;2023-03-01T16:22:46;24.23;;;10.90;;
6840;SDS011;3458;53.678;14.080;2023-03-01T16:25:12;20.73;;;10.10;;
6840;SDS011;3458;53.678;14.080;2023-03-01T16:27:43;24.13;;;11.60;;
6840;SDS011;3458;53.678;14.080;2023-03-01T16:30:10;23.97;;;10.60;;
6840;SDS011;3458;53.678;14.080;2023-03-01T16:32:37;19.97;;;9.83;;
6840;SDS011;3458;53.678;14.080;2023-03-01T16:35:04;21.87;;;9.80;;
6840;SDS011;3458;53.678;14.080;2023-03-01T16:37:31;19.83;;;9.97;;
6840;SDS011;3458;53.678;14.080;2023-03-01T16:39:58;18.83;;;9.60;;